sensor_id;sensor_type;location;lat;lon;timestamp;P1;durP1;ratioP1;P2;durP2;ratioP2
51491;SDS011;37569;50.548;8.778;2023-02-15T00:02:25;300.4;;;25.4;;
51491;SDS011;37569;50.548;8.778;2023-02-15T00:07:25;270.3;;;22.1;;
51491;SDS011;37569;50.548;8.778;2023-02-15T00:12:25;309.7;;;24.8;;
51491;SDS011;37569;50.548;8.778;2023-02-15T00:17:26;377.8;;;32.1;;
51491;SDS011;37569;50.548;8.778;2023-02-15T00:22:25;450.3;;;32.8;;
51491;SDS011;37569;50.548;8.778;2023-02-15T00:27:25;376.4;;;28.1;;
51491;SDS011;37569;50.548;8.778;2023-02-15T00:32:25;208.4;;;19.5;;
51491;SDS011;37569;50.548;8.778;2023-02-15T00:37:25;252.8;;;24.4;;
51491;SDS011;37569;50.548;8.778;2023-02-15T00:42:25;310.1;;;25.8;;
51491;SDS011;37569;50.548;8.778;2023-02-15T00:47:26;304.5;;;23.5;;
51491;SDS011;37569;50.548;8.778;2023-02-15T00:52:26;393.9;;;28.7;;
51491;SDS011;37569;50.548;8.778;2023-02-15T00:57:26;165.5;;;19;;
51491;SDS011;37569;50.548;8.778;2023-02-15T01:02:26;322;;;27.2;;
51491;SDS011;37569;50.548;8.778;2023-02-15T01:07:26;307.7;;;25.8;;
51491;SDS011;37569;50.548;8.778;2023-02-15T01:12:26;319.1;;;25.8;;
51491;SDS011;37569;50.548;8.778;2023-02-15T01:17:26;363.5;;;27.7;;
51491;SDS011;37569;50.548;8.778;2023-02-15T01:22:26;292.3;;;25;;
51491;SDS011;37569;50.548;8.778;2023-02-15T01:27:26;454.2;;;33.7;;
51491;SDS011;37569;50.548;8.778;2023-02-15T01:32:26;326;;;24.9;;
51491;SDS011;37569;50.548;8.778;2023-02-15T01:37:26;228.7;;;24.2;;
51491;SDS011;37569;50.548;8.778;2023-02-15T01:42:27;314.8;;;27.6;;
51491;SDS011;37569;50.548;8.778;2023-02-15T01:47:29;237.1;;;23.8;;
51491;SDS011;37569;50.548;8.778;2023-02-15T01:52:27;470;;;34.1;;
51491;SDS011;37569;50.548;8.778;2023-02-15T01:57:27;607.1;;;46.1;;
51491;SDS011;37569;50.548;8.778;2023-02-15T02:02:27;480.5;;;36.6;;
51491;SDS011;37569;50.548;8.778;2023-02-15T02:07:27;396.7;;;32.2;;
51491;SDS011;37569;50.548;8.778;2023-02-15T02:12:27;324.6;;;29.2;;
51491;SDS011;37569;50.548;8.778;2023-02-15T02:17:29;391.6;;;30.3;;
51491;SDS011;37569;50.548;8.778;2023-02-15T02:22:32;321.1;;;29;;
51491;SDS011;37569;50.548;8.778;2023-02-15T02:27:29;408.8;;;35.1;;
51491;SDS011;37569;50.548;8.778;2023-02-15T02:33:33;315.6;;;28.1;;
51491;SDS011;37569;50.548;8.778;2023-02-15T02:37:28;306.3;;;28.9;;
51491;SDS011;37569;50.548;8.778;2023-02-15T02:42:28;337.5;;;33.2;;
51491;SDS011;37569;50.548;8.778;2023-02-15T02:47:29;331.7;;;31;;
51491;SDS011;37569;50.548;8.778;2023-02-15T02:52:36;323.5;;;29.7;;
51491;SDS011;37569;50.548;8.778;2023-02-15T02:57:27;460.4;;;41.6;;
51491;SDS011;37569;50.548;8.778;2023-02-15T03:02:29;472.8;;;39.5;;
51491;SDS011;37569;50.548;8.778;2023-02-15T03:07:27;305.7;;;29.9;;
51491;SDS011;37569;50.548;8.778;2023-02-15T03:12:28;292.5;;;29.5;;
51491;SDS011;37569;50.548;8.778;2023-02-15T03:17:28;299.8;;;30.5;;
51491;SDS011;37569;50.548;8.778;2023-02-15T03:22:28;322.9;;;34.8;;
51491;SDS011;37569;50.548;8.778;2023-02-15T03:27:30;192.7;;;24.1;;
51491;SDS011;37569;50.548;8.778;2023-02-15T03:32:28;205.5;;;27.2;;
51491;SDS011;37569;50.548;8.778;2023-02-15T03:37:29;170.4;;;23.4;;
51491;SDS011;37569;50.548;8.778;2023-02-15T03:42:29;245.2;;;28.5;;
51491;SDS011;37569;50.548;8.778;2023-02-15T03:47:29;185.9;;;24.6;;
51491;SDS011;37569;50.548;8.778;2023-02-15T03:52:28;315.9;;;29.8;;
51491;SDS011;37569;50.548;8.778;2023-02-15T03:57:28;222.5;;;26.3;;
51491;SDS011;37569;50.548;8.778;2023-02-15T04:02:29;301.6;;;32.5;;
51491;SDS011;37569;50.548;8.778;2023-02-15T04:07:28;136.6;;;23.4;;
51491;SDS011;37569;50.548;8.778;2023-02-15T04:12:28;346.9;;;35;;
51491;SDS011;37569;50.548;8.778;2023-02-15T04:17:29;254.8;;;32.1;;
51491;SDS011;37569;50.548;8.778;2023-02-15T04:22:29;243.5;;;29;;
51491;SDS011;37569;50.548;8.778;2023-02-15T04:27:29;252.2;;;31.6;;
51491;SDS011;37569;50.548;8.778;2023-02-15T04:32:29;165.4;;;23;;
51491;SDS011;37569;50.548;8.778;2023-02-15T04:37:29;352.8;;;34.1;;
51491;SDS011;37569;50.548;8.778;2023-02-15T04:42:29;317;;;32.3;;
51491;SDS011;37569;50.548;8.778;2023-02-15T04:47:29;257.9;;;30.5;;
51491;SDS011;37569;50.548;8.778;2023-02-15T04:52:29;176.7;;;25;;
51491;SDS011;37569;50.548;8.778;2023-02-15T04:57:29;346.3;;;34.6;;
51491;SDS011;37569;50.548;8.778;2023-02-15T05:02:29;199.9;;;26.9;;
51491;SDS011;37569;50.548;8.778;2023-02-15T05:07:29;370.7;;;36.9;;
51491;SDS011;37569;50.548;8.778;2023-02-15T05:12:29;113.5;;;23.5;;
51491;SDS011;37569;50.548;8.778;2023-02-15T05:17:30;236.9;;;30.2;;
51491;SDS011;37569;50.548;8.778;2023-02-15T05:22:30;146.9;;;25.4;;
51491;SDS011;37569;50.548;8.778;2023-02-15T05:27:30;294;;;31.2;;
51491;SDS011;37569;50.548;8.778;2023-02-15T05:32:30;256.4;;;30.5;;
51491;SDS011;37569;50.548;8.778;2023-02-15T05:37:30;124.3;;;24.3;;
51491;SDS011;37569;50.548;8.778;2023-02-15T05:42:30;256.2;;;30.9;;
51491;SDS011;37569;50.548;8.778;2023-02-15T05:47:30;258.2;;;28.2;;
51491;SDS011;37569;50.548;8.778;2023-02-15T05:52:30;284;;;29.7;;
51491;SDS011;37569;50.548;8.778;2023-02-15T05:57:30;304.9;;;31.8;;
51491;SDS011;37569;50.548;8.778;2023-02-15T06:02:32;224;;;29.2;;
51491;SDS011;37569;50.548;8.778;2023-02-15T06:07:30;236.2;;;27;;
51491;SDS011;37569;50.548;8.778;2023-02-15T06:12:30;282.2;;;31;;
51491;SDS011;37569;50.548;8.778;2023-02-15T06:17:30;270.4;;;30.5;;
51491;SDS011;37569;50.548;8.778;2023-02-15T06:22:30;319.6;;;32.5;;
51491;SDS011;37569;50.548;8.778;2023-02-15T06:27:30;407.2;;;35.6;;
51491;SDS011;37569;50.548;8.778;2023-02-15T06:32:30;374.8;;;37.5;;
51491;SDS011;37569;50.548;8.778;2023-02-15T06:37:31;271.7;;;30.8;;
51491;SDS011;37569;50.548;8.778;2023-02-15T06:42:31;439.7;;;42.4;;
51491;SDS011;37569;50.548;8.778;2023-02-15T06:47:31;326.1;;;30.1;;
51491;SDS011;37569;50.548;8.778;2023-02-15T06:52:31;286.8;;;31.1;;
51491;SDS011;37569;50.548;8.778;2023-02-15T06:57:31;290.1;;;31.6;;
51491;SDS011;37569;50.548;8.778;2023-02-15T07:02:31;440.3;;;37.4;;
51491;SDS011;37569;50.548;8.778;2023-02-15T07:07:31;429.1;;;38.4;;
51491;SDS011;37569;50.548;8.778;2023-02-15T07:12:31;286.7;;;31.6;;
51491;SDS011;37569;50.548;8.778;2023-02-15T07:17:31;314.8;;;34;;
51491;SDS011;37569;50.548;8.778;2023-02-15T07:22:31;352.2;;;37.4;;
51491;SDS011;37569;50.548;8.778;2023-02-15T07:27:31;309.2;;;34.4;;
51491;SDS011;37569;50.548;8.778;2023-02-15T07:32:32;467.9;;;41.6;;
51491;SDS011;37569;50.548;8.778;2023-02-15T07:37:31;457.5;;;41.5;;
51491;SDS011;37569;50.548;8.778;2023-02-15T07:42:32;331.5;;;35.7;;
51491;SDS011;37569;50.548;8.778;2023-02-15T07:47:32;582.3;;;52.1;;
51491;SDS011;37569;50.548;8.778;2023-02-15T07:52:32;367.6;;;38.9;;
51491;SDS011;37569;50.548;8.778;2023-02-15T07:57:32;522;;;44.4;;
51491;SDS011;37569;50.548;8.778;2023-02-15T08:02:32;197.9;;;29.1;;
51491;SDS011;37569;50.548;8.778;2023-02-15T08:07:32;414.8;;;40.1;;
51491;SDS011;37569;50.548;8.778;2023-02-15T08:12:32;381.8;;;36.2;;
51491;SDS011;37569;50.548;8.778;2023-02-15T08:17:35;341;;;36.5;;
51491;SDS011;37569;50.548;8.778;2023-02-15T08:22:32;208;;;29.9;;
51491;SDS011;37569;50.548;8.778;2023-02-15T08:27:32;320;;;36.3;;
51491;SDS011;37569;50.548;8.778;2023-02-15T08:32:32;257.1;;;31.4;;
51491;SDS011;37569;50.548;8.778;2023-02-15T08:37:32;228.3;;;30.8;;
51491;SDS011;37569;50.548;8.778;2023-02-15T08:42:33;364.3;;;35.6;;
51491;SDS011;37569;50.548;8.778;2023-02-15T08:47:33;282.7;;;35.2;;
51491;SDS011;37569;50.548;8.778;2023-02-15T08:52:33;278.7;;;34.3;;
51491;SDS011;37569;50.548;8.778;2023-02-15T08:57:33;503.9;;;45.4;;
51491;SDS011;37569;50.548;8.778;2023-02-15T09:02:33;419.7;;;38.2;;
51491;SDS011;37569;50.548;8.778;2023-02-15T09:07:33;375;;;37.9;;
51491;SDS011;37569;50.548;8.778;2023-02-15T09:12:33;338.3;;;38.1;;
51491;SDS011;37569;50.548;8.778;2023-02-15T09:17:33;253.3;;;32.1;;
51491;SDS011;37569;50.548;8.778;2023-02-15T09:22:33;385.7;;;37.3;;
51491;SDS011;37569;50.548;8.778;2023-02-15T09:27:33;278;;;34.2;;
51491;SDS011;37569;50.548;8.778;2023-02-15T09:32:33;253.5;;;29.5;;
51491;SDS011;37569;50.548;8.778;2023-02-15T09:37:34;389.3;;;39.1;;
51491;SDS011;37569;50.548;8.778;2023-02-15T09:42:41;383.3;;;36.9;;
51491;SDS011;37569;50.548;8.778;2023-02-15T09:47:39;337.7;;;34.8;;
51491;SDS011;37569;50.548;8.778;2023-02-15T09:52:36;377.1;;;38.6;;
51491;SDS011;37569;50.548;8.778;2023-02-15T09:57:36;252.8;;;32.2;;
51491;SDS011;37569;50.548;8.778;2023-02-15T10:02:38;359.7;;;37.5;;
51491;SDS011;37569;50.548;8.778;2023-02-15T10:07:40;317.3;;;36.9;;
51491;SDS011;37569;50.548;8.778;2023-02-15T10:12:39;216.7;;;31.4;;
51491;SDS011;37569;50.548;8.778;2023-02-15T10:17:38;203;;;29.3;;
51491;SDS011;37569;50.548;8.778;2023-02-15T10:22:36;168.4;;;29.2;;
51491;SDS011;37569;50.548;8.778;2023-02-15T10:27:35;262.8;;;32.2;;
51491;SDS011;37569;50.548;8.778;2023-02-15T10:32:36;167.1;;;27;;
51491;SDS011;37569;50.548;8.778;2023-02-15T10:37:53;144.1;;;28.3;;
51491;SDS011;37569;50.548;8.778;2023-02-15T10:42:38;125.3;;;26.7;;
51491;SDS011;37569;50.548;8.778;2023-02-15T10:47:40;137.4;;;27.6;;
51491;SDS011;37569;50.548;8.778;2023-02-15T10:52:38;205.8;;;30.2;;
51491;SDS011;37569;50.548;8.778;2023-02-15T10:57:38;264.9;;;33.9;;
51491;SDS011;37569;50.548;8.778;2023-02-15T11:02:39;105.9;;;26.5;;
51491;SDS011;37569;50.548;8.778;2023-02-15T11:07:37;112.1;;;26.6;;
51491;SDS011;37569;50.548;8.778;2023-02-15T11:12:36;133.1;;;27.4;;
51491;SDS011;37569;50.548;8.778;2023-02-15T11:17:37;121.7;;;25.7;;
51491;SDS011;37569;50.548;8.778;2023-02-15T11:22:36;105.2;;;26;;
51491;SDS011;37569;50.548;8.778;2023-02-15T11:27:36;110.1;;;25.3;;
51491;SDS011;37569;50.548;8.778;2023-02-15T11:32:37;66.5;;;23.1;;
51491;SDS011;37569;50.548;8.778;2023-02-15T11:37:37;151.4;;;24.4;;
51491;SDS011;37569;50.548;8.778;2023-02-15T11:42:36;120.8;;;23.2;;
51491;SDS011;37569;50.548;8.778;2023-02-15T11:47:37;141.8;;;25;;
51491;SDS011;37569;50.548;8.778;2023-02-15T11:52:37;88.1;;;21.3;;
51491;SDS011;37569;50.548;8.778;2023-02-15T11:57:38;60.2;;;21.3;;
51491;SDS011;37569;50.548;8.778;2023-02-15T12:02:37;106.3;;;21.9;;
51491;SDS011;37569;50.548;8.778;2023-02-15T12:07:40;90.4;;;22.4;;
51491;SDS011;37569;50.548;8.778;2023-02-15T12:12:37;50.8;;;20.7;;
51491;SDS011;37569;50.548;8.778;2023-02-15T12:17:38;50.8;;;20.6;;
51491;SDS011;37569;50.548;8.778;2023-02-15T12:22:38;39.4;;;18.7;;
51491;SDS011;37569;50.548;8.778;2023-02-15T12:27:38;52.6;;;16.9;;
51491;SDS011;37569;50.548;8.778;2023-02-15T12:32:46;56.1;;;19.1;;
51491;SDS011;37569;50.548;8.778;2023-02-15T12:37:38;38;;;17.7;;
51491;SDS011;37569;50.548;8.778;2023-02-15T12:42:41;47.8;;;19.3;;
51491;SDS011;37569;50.548;8.778;2023-02-15T12:47:38;34.1;;;17.7;;
51491;SDS011;37569;50.548;8.778;2023-02-15T12:52:38;43.1;;;19;;
51491;SDS011;37569;50.548;8.778;2023-02-15T12:57:39;41.2;;;19.2;;
51491;SDS011;37569;50.548;8.778;2023-02-15T13:02:41;48.3;;;19;;
51491;SDS011;37569;50.548;8.778;2023-02-15T13:07:39;40.1;;;19.4;;
51491;SDS011;37569;50.548;8.778;2023-02-15T13:12:39;42.5;;;20.7;;
51491;SDS011;37569;50.548;8.778;2023-02-15T13:17:39;37.4;;;19.2;;
51491;SDS011;37569;50.548;8.778;2023-02-15T13:22:40;36.9;;;20.3;;
51491;SDS011;37569;50.548;8.778;2023-02-15T13:27:40;33.6;;;19.3;;
51491;SDS011;37569;50.548;8.778;2023-02-15T13:32:39;35.6;;;20.5;;
51491;SDS011;37569;50.548;8.778;2023-02-15T13:37:51;38.4;;;21.1;;
51491;SDS011;37569;50.548;8.778;2023-02-15T13:42:40;34.5;;;20;;
51491;SDS011;37569;50.548;8.778;2023-02-15T13:47:42;39.1;;;21.8;;
51491;SDS011;37569;50.548;8.778;2023-02-15T13:52:41;37.2;;;21.8;;
51491;SDS011;37569;50.548;8.778;2023-02-15T13:57:44;37.3;;;21.5;;
51491;SDS011;37569;50.548;8.778;2023-02-15T14:02:48;35.1;;;20.4;;
51491;SDS011;37569;50.548;8.778;2023-02-15T14:07:44;37.1;;;21.4;;
51491;SDS011;37569;50.548;8.778;2023-02-15T14:12:44;36.9;;;21.5;;
51491;SDS011;37569;50.548;8.778;2023-02-15T14:17:43;34.5;;;20.7;;
51491;SDS011;37569;50.548;8.778;2023-02-15T14:22:41;37.3;;;22;;
51491;SDS011;37569;50.548;8.778;2023-02-15T14:27:43;36.8;;;21.6;;
51491;SDS011;37569;50.548;8.778;2023-02-15T14:32:42;36.8;;;21.4;;
51491;SDS011;37569;50.548;8.778;2023-02-15T14:37:42;33.6;;;20.2;;
51491;SDS011;37569;50.548;8.778;2023-02-15T14:42:42;37.3;;;21.2;;
51491;SDS011;37569;50.548;8.778;2023-02-15T14:47:42;39.6;;;22.2;;
51491;SDS011;37569;50.548;8.778;2023-02-15T14:52:50;55.3;;;28.8;;
51491;SDS011;37569;50.548;8.778;2023-02-15T14:57:42;39.8;;;22;;
51491;SDS011;37569;50.548;8.778;2023-02-15T15:02:43;38.3;;;20.8;;
51491;SDS011;37569;50.548;8.778;2023-02-15T15:07:42;40.8;;;23.8;;
51491;SDS011;37569;50.548;8.778;2023-02-15T15:12:42;38.9;;;21.4;;
51491;SDS011;37569;50.548;8.778;2023-02-15T15:17:59;39.3;;;22.1;;
51491;SDS011;37569;50.548;8.778;2023-02-15T15:22:42;37;;;21.8;;
51491;SDS011;37569;50.548;8.778;2023-02-15T15:27:44;38.6;;;23.1;;
51491;SDS011;37569;50.548;8.778;2023-02-15T15:32:43;41.6;;;22.9;;
51491;SDS011;37569;50.548;8.778;2023-02-15T15:37:46;39.7;;;23.7;;
51491;SDS011;37569;50.548;8.778;2023-02-15T15:42:48;45.3;;;25.3;;
51491;SDS011;37569;50.548;8.778;2023-02-15T15:47:46;45.9;;;26;;
51491;SDS011;37569;50.548;8.778;2023-02-15T15:52:44;48.1;;;26.7;;
51491;SDS011;37569;50.548;8.778;2023-02-15T15:57:44;49.5;;;25.5;;
51491;SDS011;37569;50.548;8.778;2023-02-15T16:02:49;57.1;;;28.9;;
51491;SDS011;37569;50.548;8.778;2023-02-15T16:07:43;62.4;;;31.6;;
51491;SDS011;37569;50.548;8.778;2023-02-15T16:12:43;55.2;;;28.8;;
51491;SDS011;37569;50.548;8.778;2023-02-15T16:17:46;59;;;31.1;;
51491;SDS011;37569;50.548;8.778;2023-02-15T16:22:44;79.6;;;36.8;;
51491;SDS011;37569;50.548;8.778;2023-02-15T16:27:44;55.5;;;30.3;;
51491;SDS011;37569;50.548;8.778;2023-02-15T16:32:44;58.1;;;29.5;;
51491;SDS011;37569;50.548;8.778;2023-02-15T16:37:44;58.9;;;30.7;;
51491;SDS011;37569;50.548;8.778;2023-02-15T16:42:44;95.7;;;42.4;;
51491;SDS011;37569;50.548;8.778;2023-02-15T16:47:45;81.4;;;37;;
51491;SDS011;37569;50.548;8.778;2023-02-15T16:52:44;62.5;;;31.9;;
51491;SDS011;37569;50.548;8.778;2023-02-15T16:57:45;66.2;;;32.1;;
51491;SDS011;37569;50.548;8.778;2023-02-15T17:02:52;70.7;;;33.7;;
51491;SDS011;37569;50.548;8.778;2023-02-15T17:07:49;73.1;;;35.2;;
51491;SDS011;37569;50.548;8.778;2023-02-15T17:12:45;72.4;;;33.4;;
51491;SDS011;37569;50.548;8.778;2023-02-15T17:17:45;71.7;;;32.3;;
51491;SDS011;37569;50.548;8.778;2023-02-15T17:22:45;72.2;;;33.7;;
51491;SDS011;37569;50.548;8.778;2023-02-15T17:27:49;90.7;;;40.2;;
51491;SDS011;37569;50.548;8.778;2023-02-15T17:32:52;74;;;33.8;;
51491;SDS011;37569;50.548;8.778;2023-02-15T17:37:47;76;;;32.2;;
51491;SDS011;37569;50.548;8.778;2023-02-15T17:42:46;75.8;;;34.1;;
51491;SDS011;37569;50.548;8.778;2023-02-15T17:47:46;79.4;;;34.2;;
51491;SDS011;37569;50.548;8.778;2023-02-15T17:52:46;83.6;;;35.1;;
51491;SDS011;37569;50.548;8.778;2023-02-15T17:57:46;80.5;;;35.1;;
51491;SDS011;37569;50.548;8.778;2023-02-15T18:02:46;82.1;;;34.2;;
51491;SDS011;37569;50.548;8.778;2023-02-15T18:07:47;84.4;;;34.7;;
51491;SDS011;37569;50.548;8.778;2023-02-15T18:12:47;82.3;;;35.4;;
51491;SDS011;37569;50.548;8.778;2023-02-15T18:17:47;81;;;34.5;;
51491;SDS011;37569;50.548;8.778;2023-02-15T18:22:47;85.2;;;36.6;;
51491;SDS011;37569;50.548;8.778;2023-02-15T18:27:47;86.6;;;37.5;;
51491;SDS011;37569;50.548;8.778;2023-02-15T18:32:48;87.6;;;35.9;;
51491;SDS011;37569;50.548;8.778;2023-02-15T18:37:47;99;;;37.1;;
51491;SDS011;37569;50.548;8.778;2023-02-15T18:42:48;88.3;;;35.5;;
51491;SDS011;37569;50.548;8.778;2023-02-15T18:47:48;93.4;;;35.9;;
51491;SDS011;37569;50.548;8.778;2023-02-15T18:52:48;92.5;;;36.2;;
51491;SDS011;37569;50.548;8.778;2023-02-15T18:57:48;103.3;;;40;;
51491;SDS011;37569;50.548;8.778;2023-02-15T19:02:48;102;;;41;;
51491;SDS011;37569;50.548;8.778;2023-02-15T19:07:48;89;;;36.2;;
51491;SDS011;37569;50.548;8.778;2023-02-15T19:12:48;102.3;;;37.2;;
51491;SDS011;37569;50.548;8.778;2023-02-15T19:17:49;107.2;;;39.2;;
51491;SDS011;37569;50.548;8.778;2023-02-15T19:22:49;105.8;;;40.6;;
51491;SDS011;37569;50.548;8.778;2023-02-15T19:27:49;111.1;;;39.2;;
51491;SDS011;37569;50.548;8.778;2023-02-15T19:32:49;124.6;;;40.5;;
51491;SDS011;37569;50.548;8.778;2023-02-15T19:37:49;117.7;;;41.1;;
51491;SDS011;37569;50.548;8.778;2023-02-15T19:42:49;163.6;;;42.2;;
51491;SDS011;37569;50.548;8.778;2023-02-15T19:47:49;121.2;;;45.8;;
51491;SDS011;37569;50.548;8.778;2023-02-15T19:52:49;229.3;;;44.8;;
51491;SDS011;37569;50.548;8.778;2023-02-15T19:57:49;186;;;45.1;;
51491;SDS011;37569;50.548;8.778;2023-02-15T20:02:50;238.8;;;46.5;;
51491;SDS011;37569;50.548;8.778;2023-02-15T20:07:50;198;;;45.4;;
51491;SDS011;37569;50.548;8.778;2023-02-15T20:12:50;175.6;;;44.1;;
51491;SDS011;37569;50.548;8.778;2023-02-15T20:17:50;198.7;;;45;;
51491;SDS011;37569;50.548;8.778;2023-02-15T20:22:50;135.8;;;42.7;;
51491;SDS011;37569;50.548;8.778;2023-02-15T20:27:50;141.2;;;41.9;;
51491;SDS011;37569;50.548;8.778;2023-02-15T20:32:50;128.3;;;41.1;;
51491;SDS011;37569;50.548;8.778;2023-02-15T20:37:51;133.3;;;40.2;;
51491;SDS011;37569;50.548;8.778;2023-02-15T20:42:51;164.9;;;43.8;;
51491;SDS011;37569;50.548;8.778;2023-02-15T20:47:51;168.2;;;43.5;;
51491;SDS011;37569;50.548;8.778;2023-02-15T20:52:52;156.4;;;42.2;;
51491;SDS011;37569;50.548;8.778;2023-02-15T20:57:51;164.1;;;39.7;;
51491;SDS011;37569;50.548;8.778;2023-02-15T21:02:53;268.7;;;46.5;;
51491;SDS011;37569;50.548;8.778;2023-02-15T21:07:52;214.3;;;45.2;;
51491;SDS011;37569;50.548;8.778;2023-02-15T21:12:51;221.5;;;45.6;;
51491;SDS011;37569;50.548;8.778;2023-02-15T21:17:51;298.1;;;49.1;;
51491;SDS011;37569;50.548;8.778;2023-02-15T21:22:52;168.1;;;43.4;;
51491;SDS011;37569;50.548;8.778;2023-02-15T21:27:52;226.3;;;45.2;;
51491;SDS011;37569;50.548;8.778;2023-02-15T21:32:52;322.4;;;48.6;;
51491;SDS011;37569;50.548;8.778;2023-02-15T21:37:52;269.6;;;48.7;;
51491;SDS011;37569;50.548;8.778;2023-02-15T21:42:52;158.9;;;42.6;;
51491;SDS011;37569;50.548;8.778;2023-02-15T21:47:52;381.7;;;53.2;;
51491;SDS011;37569;50.548;8.778;2023-02-15T21:52:52;404.8;;;54.3;;
51491;SDS011;37569;50.548;8.778;2023-02-15T21:57:52;355;;;49.1;;
51491;SDS011;37569;50.548;8.778;2023-02-15T22:02:53;535.4;;;57.9;;
51491;SDS011;37569;50.548;8.778;2023-02-15T22:07:53;556.6;;;60.4;;
51491;SDS011;37569;50.548;8.778;2023-02-15T22:12:53;365.1;;;49.3;;
51491;SDS011;37569;50.548;8.778;2023-02-15T22:17:53;407.6;;;49.8;;
51491;SDS011;37569;50.548;8.778;2023-02-15T22:22:53;309.9;;;46.8;;
51491;SDS011;37569;50.548;8.778;2023-02-15T22:27:53;351;;;51.4;;
51491;SDS011;37569;50.548;8.778;2023-02-15T22:32:54;255.6;;;43.9;;
51491;SDS011;37569;50.548;8.778;2023-02-15T22:37:53;313.4;;;45.8;;
51491;SDS011;37569;50.548;8.778;2023-02-15T22:42:54;210.7;;;43;;
51491;SDS011;37569;50.548;8.778;2023-02-15T22:47:54;413.7;;;48.6;;
51491;SDS011;37569;50.548;8.778;2023-02-15T22:52:54;236.8;;;45.1;;
51491;SDS011;37569;50.548;8.778;2023-02-15T22:57:54;417.4;;;50.7;;
51491;SDS011;37569;50.548;8.778;2023-02-15T23:02:54;388;;;51.3;;
51491;SDS011;37569;50.548;8.778;2023-02-15T23:07:54;346.1;;;48.7;;
51491;SDS011;37569;50.548;8.778;2023-02-15T23:12:55;211.8;;;42.9;;
51491;SDS011;37569;50.548;8.778;2023-02-15T23:17:54;265.1;;;45.6;;
51491;SDS011;37569;50.548;8.778;2023-02-15T23:22:54;236.2;;;44.6;;
51491;SDS011;37569;50.548;8.778;2023-02-15T23:27:54;410;;;48;;
51491;SDS011;37569;50.548;8.778;2023-02-15T23:32:55;415.3;;;49.6;;
51491;SDS011;37569;50.548;8.778;2023-02-15T23:37:55;510.3;;;55.5;;
51491;SDS011;37569;50.548;8.778;2023-02-15T23:42:55;301.5;;;45;;
51491;SDS011;37569;50.548;8.778;2023-02-15T23:47:55;542;;;60.8;;
51491;SDS011;37569;50.548;8.778;2023-02-15T23:52:55;475.6;;;52.1;;
51491;SDS011;37569;50.548;8.778;2023-02-15T23:57:55;436.1;;;50.4;;
